sensor_id;sensor_type;location;lat;lon;timestamp;temperature;humidity
29687;DHT22;16599;47.078;15.536;2023-03-04T00:00:58;0.00;99.90
29687;DHT22;16599;47.078;15.536;2023-03-04T00:03:25;-0.30;99.90
29687;DHT22;16599;47.078;15.536;2023-03-04T00:05:51;-0.60;99.90
29687;DHT22;16599;47.078;15.536;2023-03-04T00:08:18;-0.30;99.90
29687;DHT22;16599;47.078;15.536;2023-03-04T00:10:45;-0.40;99.90
29687;DHT22;16599;47.078;15.536;2023-03-04T00:13:11;-0.40;99.90
29687;DHT22;16599;47.078;15.536;2023-03-04T00:15:38;-0.20;99.90
29687;DHT22;16599;47.078;15.536;2023-03-04T00:18:05;-0.50;99.90
29687;DHT22;16599;47.078;15.536;2023-03-04T00:20:32;-0.40;99.90
29687;DHT22;16599;47.078;15.536;2023-03-04T00:22:58;-0.20;99.90
29687;DHT22;16599;47.078;15.536;2023-03-04T00:25:25;-0.30;99.90
29687;DHT22;16599;47.078;15.536;2023-03-04T00:27:51;-0.60;99.90
29687;DHT22;16599;47.078;15.536;2023-03-04T00:30:18;-0.40;99.90
29687;DHT22;16599;47.078;15.536;2023-03-04T00:32:45;-0.20;99.90
29687;DHT22;16599;47.078;15.536;2023-03-04T00:35:12;-0.40;99.90
29687;DHT22;16599;47.078;15.536;2023-03-04T00:37:38;-0.90;99.90
29687;DHT22;16599;47.078;15.536;2023-03-04T00:40:05;-0.60;99.90
29687;DHT22;16599;47.078;15.536;2023-03-04T00:42:32;-0.30;99.90
29687;DHT22;16599;47.078;15.536;2023-03-04T00:44:58;-0.60;99.90
29687;DHT22;16599;47.078;15.536;2023-03-04T00:47:25;-0.90;99.90
29687;DHT22;16599;47.078;15.536;2023-03-04T00:49:52;-0.80;99.90
29687;DHT22;16599;47.078;15.536;2023-03-04T00:52:19;-0.60;99.90
29687;DHT22;16599;47.078;15.536;2023-03-04T00:54:45;-0.60;99.90
29687;DHT22;16599;47.078;15.536;2023-03-04T00:57:12;-0.40;99.90
29687;DHT22;16599;47.078;15.536;2023-03-04T00:59:39;-0.70;99.90
29687;DHT22;16599;47.078;15.536;2023-03-04T01:02:06;-1.00;99.90
29687;DHT22;16599;47.078;15.536;2023-03-04T01:04:32;-1.00;99.90
29687;DHT22;16599;47.078;15.536;2023-03-04T01:06:59;-0.70;99.90
29687;DHT22;16599;47.078;15.536;2023-03-04T01:09:26;-0.60;99.90
29687;DHT22;16599;47.078;15.536;2023-03-04T01:11:52;-0.50;99.90
29687;DHT22;16599;47.078;15.536;2023-03-04T01:14:19;-1.00;99.90
29687;DHT22;16599;47.078;15.536;2023-03-04T01:16:46;-1.00;99.90
29687;DHT22;16599;47.078;15.536;2023-03-04T01:19:13;-0.90;99.90
29687;DHT22;16599;47.078;15.536;2023-03-04T01:21:39;-0.90;99.90
29687;DHT22;16599;47.078;15.536;2023-03-04T01:24:06;-1.20;99.90
29687;DHT22;16599;47.078;15.536;2023-03-04T01:26:33;-1.20;99.90
29687;DHT22;16599;47.078;15.536;2023-03-04T01:28:59;-0.80;99.90
29687;DHT22;16599;47.078;15.536;2023-03-04T01:31:26;-1.10;99.90
29687;DHT22;16599;47.078;15.536;2023-03-04T01:33:53;-1.00;99.90
29687;DHT22;16599;47.078;15.536;2023-03-04T01:36:19;-1.00;99.90
29687;DHT22;16599;47.078;15.536;2023-03-04T01:38:46;-1.30;99.90
29687;DHT22;16599;47.078;15.536;2023-03-04T01:41:13;-0.90;99.90
29687;DHT22;16599;47.078;15.536;2023-03-04T01:43:41;-0.60;99.90
29687;DHT22;16599;47.078;15.536;2023-03-04T01:46:08;-0.90;99.90
29687;DHT22;16599;47.078;15.536;2023-03-04T01:48:36;-1.10;99.90
29687;DHT22;16599;47.078;15.536;2023-03-04T01:51:04;-1.10;99.90
29687;DHT22;16599;47.078;15.536;2023-03-04T01:53:31;-1.30;99.90
29687;DHT22;16599;47.078;15.536;2023-03-04T01:56:04;-1.10;99.90
29687;DHT22;16599;47.078;15.536;2023-03-04T01:58:36;-1.00;99.90
29687;DHT22;16599;47.078;15.536;2023-03-04T02:01:03;-1.10;99.90
29687;DHT22;16599;47.078;15.536;2023-03-04T02:03:29;-1.00;99.90
29687;DHT22;16599;47.078;15.536;2023-03-04T02:05:56;-1.20;99.90
29687;DHT22;16599;47.078;15.536;2023-03-04T02:08:23;-1.30;99.90
29687;DHT22;16599;47.078;15.536;2023-03-04T02:10:50;-1.30;99.90
29687;DHT22;16599;47.078;15.536;2023-03-04T02:13:17;-1.20;99.90
29687;DHT22;16599;47.078;15.536;2023-03-04T02:15:44;-1.00;99.90
29687;DHT22;16599;47.078;15.536;2023-03-04T02:18:16;-0.80;99.90
29687;DHT22;16599;47.078;15.536;2023-03-04T02:20:46;-1.60;99.90
29687;DHT22;16599;47.078;15.536;2023-03-04T02:28:29;-1.30;99.90
29687;DHT22;16599;47.078;15.536;2023-03-04T02:30:56;-1.40;99.90
29687;DHT22;16599;47.078;15.536;2023-03-04T02:33:22;-1.20;99.90
29687;DHT22;16599;47.078;15.536;2023-03-04T02:35:49;-1.60;99.90
29687;DHT22;16599;47.078;15.536;2023-03-04T02:38:16;-1.50;99.90
29687;DHT22;16599;47.078;15.536;2023-03-04T02:40:44;-1.30;99.90
29687;DHT22;16599;47.078;15.536;2023-03-04T02:43:12;-1.40;99.90
29687;DHT22;16599;47.078;15.536;2023-03-04T02:45:40;-1.20;99.90
29687;DHT22;16599;47.078;15.536;2023-03-04T02:48:08;-1.30;99.90
29687;DHT22;16599;47.078;15.536;2023-03-04T02:50:40;-1.50;99.90
29687;DHT22;16599;47.078;15.536;2023-03-04T02:53:07;-1.50;99.90
29687;DHT22;16599;47.078;15.536;2023-03-04T02:55:34;-1.40;99.90
29687;DHT22;16599;47.078;15.536;2023-03-04T02:58:01;-1.40;99.90
29687;DHT22;16599;47.078;15.536;2023-03-04T03:00:28;-1.60;99.90
29687;DHT22;16599;47.078;15.536;2023-03-04T03:02:54;-1.60;99.90
29687;DHT22;16599;47.078;15.536;2023-03-04T03:05:23;-1.50;99.90
29687;DHT22;16599;47.078;15.536;2023-03-04T03:07:51;-1.90;99.90
29687;DHT22;16599;47.078;15.536;2023-03-04T03:10:17;-1.80;99.90
29687;DHT22;16599;47.078;15.536;2023-03-04T03:12:44;-1.70;99.90
29687;DHT22;16599;47.078;15.536;2023-03-04T03:15:11;-1.90;99.90
29687;DHT22;16599;47.078;15.536;2023-03-04T03:17:39;-1.70;99.90
29687;DHT22;16599;47.078;15.536;2023-03-04T03:20:06;-1.40;99.90
29687;DHT22;16599;47.078;15.536;2023-03-04T03:22:33;-1.40;99.90
29687;DHT22;16599;47.078;15.536;2023-03-04T03:24:59;-1.30;99.90
29687;DHT22;16599;47.078;15.536;2023-03-04T03:27:26;-1.90;99.90
29687;DHT22;16599;47.078;15.536;2023-03-04T03:29:53;-2.30;99.90
29687;DHT22;16599;47.078;15.536;2023-03-04T03:32:19;-2.00;99.90
29687;DHT22;16599;47.078;15.536;2023-03-04T03:34:46;-1.90;99.90
29687;DHT22;16599;47.078;15.536;2023-03-04T03:37:13;-1.70;99.90
29687;DHT22;16599;47.078;15.536;2023-03-04T03:39:40;-1.70;99.90
29687;DHT22;16599;47.078;15.536;2023-03-04T03:42:07;-2.10;99.90
29687;DHT22;16599;47.078;15.536;2023-03-04T03:44:33;-1.80;99.90
29687;DHT22;16599;47.078;15.536;2023-03-04T03:47:00;-2.00;99.90
29687;DHT22;16599;47.078;15.536;2023-03-04T03:49:27;-2.20;99.90
29687;DHT22;16599;47.078;15.536;2023-03-04T03:51:54;-2.20;99.90
29687;DHT22;16599;47.078;15.536;2023-03-04T03:54:21;-2.20;99.90
29687;DHT22;16599;47.078;15.536;2023-03-04T03:56:47;-2.00;99.90
29687;DHT22;16599;47.078;15.536;2023-03-04T03:59:14;-1.90;99.90
29687;DHT22;16599;47.078;15.536;2023-03-04T04:01:40;-1.80;99.90
29687;DHT22;16599;47.078;15.536;2023-03-04T04:04:07;-1.90;99.90
29687;DHT22;16599;47.078;15.536;2023-03-04T04:06:34;-2.10;99.90
29687;DHT22;16599;47.078;15.536;2023-03-04T04:09:01;-1.90;99.90
29687;DHT22;16599;47.078;15.536;2023-03-04T04:11:27;-1.80;99.90
29687;DHT22;16599;47.078;15.536;2023-03-04T04:13:54;-2.20;99.90
29687;DHT22;16599;47.078;15.536;2023-03-04T04:16:21;-2.40;99.90
29687;DHT22;16599;47.078;15.536;2023-03-04T04:18:47;-2.30;99.90
29687;DHT22;16599;47.078;15.536;2023-03-04T04:21:14;-2.30;99.90
29687;DHT22;16599;47.078;15.536;2023-03-04T04:23:41;-2.40;99.90
29687;DHT22;16599;47.078;15.536;2023-03-04T04:26:07;-2.30;99.90
29687;DHT22;16599;47.078;15.536;2023-03-04T04:28:34;-2.10;99.90
29687;DHT22;16599;47.078;15.536;2023-03-04T04:31:01;-2.40;99.90
29687;DHT22;16599;47.078;15.536;2023-03-04T04:33:27;-2.20;99.90
29687;DHT22;16599;47.078;15.536;2023-03-04T04:35:54;-2.20;99.90
29687;DHT22;16599;47.078;15.536;2023-03-04T04:38:21;-2.60;99.90
29687;DHT22;16599;47.078;15.536;2023-03-04T04:40:48;-2.60;99.90
29687;DHT22;16599;47.078;15.536;2023-03-04T04:43:14;-2.20;99.90
29687;DHT22;16599;47.078;15.536;2023-03-04T04:45:41;-2.20;99.90
29687;DHT22;16599;47.078;15.536;2023-03-04T04:48:08;-2.70;99.90
29687;DHT22;16599;47.078;15.536;2023-03-04T04:50:35;-2.60;99.90
29687;DHT22;16599;47.078;15.536;2023-03-04T04:53:01;-2.30;99.90
29687;DHT22;16599;47.078;15.536;2023-03-04T04:55:28;-2.60;99.90
29687;DHT22;16599;47.078;15.536;2023-03-04T04:57:55;-2.50;99.90
29687;DHT22;16599;47.078;15.536;2023-03-04T05:00:21;-2.60;99.90
29687;DHT22;16599;47.078;15.536;2023-03-04T05:02:48;-2.50;99.90
29687;DHT22;16599;47.078;15.536;2023-03-04T05:05:15;-2.70;99.90
29687;DHT22;16599;47.078;15.536;2023-03-04T05:07:41;-2.60;99.90
29687;DHT22;16599;47.078;15.536;2023-03-04T05:10:09;-2.70;99.90
29687;DHT22;16599;47.078;15.536;2023-03-04T05:12:35;-2.50;99.90
29687;DHT22;16599;47.078;15.536;2023-03-04T05:15:02;-2.30;99.90
29687;DHT22;16599;47.078;15.536;2023-03-04T05:17:29;-2.20;99.90
29687;DHT22;16599;47.078;15.536;2023-03-04T05:19:56;-2.20;99.90
29687;DHT22;16599;47.078;15.536;2023-03-04T05:22:22;-2.20;99.90
29687;DHT22;16599;47.078;15.536;2023-03-04T05:24:49;-2.30;99.90
29687;DHT22;16599;47.078;15.536;2023-03-04T05:27:16;-2.10;99.90
29687;DHT22;16599;47.078;15.536;2023-03-04T05:29:42;-2.60;99.90
29687;DHT22;16599;47.078;15.536;2023-03-04T05:32:12;-2.30;99.90
29687;DHT22;16599;47.078;15.536;2023-03-04T05:34:38;-2.50;99.90
29687;DHT22;16599;47.078;15.536;2023-03-04T05:37:05;-2.50;99.90
29687;DHT22;16599;47.078;15.536;2023-03-04T05:39:32;-2.70;99.90
29687;DHT22;16599;47.078;15.536;2023-03-04T05:41:58;-2.80;99.90
29687;DHT22;16599;47.078;15.536;2023-03-04T05:44:25;-2.60;99.90
29687;DHT22;16599;47.078;15.536;2023-03-04T05:46:52;-2.50;99.90
29687;DHT22;16599;47.078;15.536;2023-03-04T05:49:18;-2.60;99.90
29687;DHT22;16599;47.078;15.536;2023-03-04T05:51:45;-2.70;99.90
29687;DHT22;16599;47.078;15.536;2023-03-04T05:54:12;-2.50;99.90
29687;DHT22;16599;47.078;15.536;2023-03-04T05:56:38;-2.40;99.90
29687;DHT22;16599;47.078;15.536;2023-03-04T05:59:05;-2.50;99.90
29687;DHT22;16599;47.078;15.536;2023-03-04T06:01:32;-2.30;99.90
29687;DHT22;16599;47.078;15.536;2023-03-04T06:03:59;-2.50;99.90
29687;DHT22;16599;47.078;15.536;2023-03-04T06:06:25;-2.30;99.90
29687;DHT22;16599;47.078;15.536;2023-03-04T06:08:52;-2.40;99.90
29687;DHT22;16599;47.078;15.536;2023-03-04T06:11:19;-2.20;99.90
29687;DHT22;16599;47.078;15.536;2023-03-04T06:13:45;-2.00;99.90
29687;DHT22;16599;47.078;15.536;2023-03-04T06:16:12;-2.30;99.90
29687;DHT22;16599;47.078;15.536;2023-03-04T06:18:39;-2.30;99.90
29687;DHT22;16599;47.078;15.536;2023-03-04T06:21:06;-2.50;99.90
29687;DHT22;16599;47.078;15.536;2023-03-04T06:23:32;-2.40;99.90
29687;DHT22;16599;47.078;15.536;2023-03-04T06:25:59;-2.10;99.90
29687;DHT22;16599;47.078;15.536;2023-03-04T06:28:27;-2.10;99.90
29687;DHT22;16599;47.078;15.536;2023-03-04T06:30:54;-2.10;99.90
29687;DHT22;16599;47.078;15.536;2023-03-04T06:33:21;-2.20;99.90
29687;DHT22;16599;47.078;15.536;2023-03-04T06:35:48;-2.30;99.90
29687;DHT22;16599;47.078;15.536;2023-03-04T06:38:18;-2.10;99.90
29687;DHT22;16599;47.078;15.536;2023-03-04T06:40:45;-1.90;99.90
29687;DHT22;16599;47.078;15.536;2023-03-04T06:43:12;-1.90;99.90
29687;DHT22;16599;47.078;15.536;2023-03-04T06:45:38;-1.70;99.90
29687;DHT22;16599;47.078;15.536;2023-03-04T06:48:05;-1.70;99.90
29687;DHT22;16599;47.078;15.536;2023-03-04T06:50:32;-1.60;99.90
29687;DHT22;16599;47.078;15.536;2023-03-04T06:52:58;-1.40;99.90
29687;DHT22;16599;47.078;15.536;2023-03-04T06:55:25;-1.30;99.90
29687;DHT22;16599;47.078;15.536;2023-03-04T06:57:52;-1.20;99.90
29687;DHT22;16599;47.078;15.536;2023-03-04T07:00:19;-0.90;99.90
29687;DHT22;16599;47.078;15.536;2023-03-04T07:02:45;-0.70;99.90
29687;DHT22;16599;47.078;15.536;2023-03-04T07:05:12;-0.70;99.90
29687;DHT22;16599;47.078;15.536;2023-03-04T07:07:39;-0.80;99.90
29687;DHT22;16599;47.078;15.536;2023-03-04T07:10:05;-1.10;99.90
29687;DHT22;16599;47.078;15.536;2023-03-04T07:12:32;-1.10;99.90
29687;DHT22;16599;47.078;15.536;2023-03-04T07:14:59;-0.90;99.90
29687;DHT22;16599;47.078;15.536;2023-03-04T07:17:26;-0.80;99.90
29687;DHT22;16599;47.078;15.536;2023-03-04T07:19:53;-0.70;99.90
29687;DHT22;16599;47.078;15.536;2023-03-04T07:22:19;-0.70;99.90
29687;DHT22;16599;47.078;15.536;2023-03-04T07:24:48;-0.50;99.90
29687;DHT22;16599;47.078;15.536;2023-03-04T07:27:22;-0.30;99.90
29687;DHT22;16599;47.078;15.536;2023-03-04T07:29:49;-0.10;99.90
29687;DHT22;16599;47.078;15.536;2023-03-04T07:32:16;0.00;99.90
29687;DHT22;16599;47.078;15.536;2023-03-04T07:34:43;0.20;99.90
29687;DHT22;16599;47.078;15.536;2023-03-04T07:37:10;0.20;99.90
29687;DHT22;16599;47.078;15.536;2023-03-04T07:39:36;0.30;99.90
29687;DHT22;16599;47.078;15.536;2023-03-04T07:42:03;0.40;99.90
29687;DHT22;16599;47.078;15.536;2023-03-04T07:44:30;0.60;99.90
29687;DHT22;16599;47.078;15.536;2023-03-04T07:46:56;0.90;99.90
29687;DHT22;16599;47.078;15.536;2023-03-04T07:49:23;0.90;99.90
29687;DHT22;16599;47.078;15.536;2023-03-04T07:51:51;1.30;99.90
29687;DHT22;16599;47.078;15.536;2023-03-04T07:54:18;1.40;99.90
29687;DHT22;16599;47.078;15.536;2023-03-04T07:56:45;1.50;99.90
29687;DHT22;16599;47.078;15.536;2023-03-04T07:59:12;1.90;99.90
29687;DHT22;16599;47.078;15.536;2023-03-04T08:01:39;1.80;99.90
29687;DHT22;16599;47.078;15.536;2023-03-04T08:04:05;1.90;99.90
29687;DHT22;16599;47.078;15.536;2023-03-04T08:06:33;2.20;99.90
29687;DHT22;16599;47.078;15.536;2023-03-04T08:09:01;2.40;99.90
29687;DHT22;16599;47.078;15.536;2023-03-04T08:11:28;2.50;99.90
29687;DHT22;16599;47.078;15.536;2023-03-04T08:13:56;2.80;99.90
29687;DHT22;16599;47.078;15.536;2023-03-04T08:16:23;3.00;99.90
29687;DHT22;16599;47.078;15.536;2023-03-04T08:18:51;3.10;99.90
29687;DHT22;16599;47.078;15.536;2023-03-04T08:21:18;3.10;99.90
29687;DHT22;16599;47.078;15.536;2023-03-04T08:23:46;3.30;99.90
29687;DHT22;16599;47.078;15.536;2023-03-04T08:26:15;3.60;99.90
29687;DHT22;16599;47.078;15.536;2023-03-04T08:28:41;3.70;99.90
29687;DHT22;16599;47.078;15.536;2023-03-04T08:31:08;4.10;99.90
29687;DHT22;16599;47.078;15.536;2023-03-04T08:33:35;4.00;99.90
29687;DHT22;16599;47.078;15.536;2023-03-04T08:36:02;4.30;99.90
29687;DHT22;16599;47.078;15.536;2023-03-04T08:38:28;4.50;99.90
29687;DHT22;16599;47.078;15.536;2023-03-04T08:40:57;4.50;99.90
29687;DHT22;16599;47.078;15.536;2023-03-04T08:43:24;4.60;99.90
29687;DHT22;16599;47.078;15.536;2023-03-04T08:45:52;4.90;99.90
29687;DHT22;16599;47.078;15.536;2023-03-04T08:48:19;5.10;99.90
29687;DHT22;16599;47.078;15.536;2023-03-04T08:50:46;5.10;99.90
29687;DHT22;16599;47.078;15.536;2023-03-04T08:53:13;5.30;99.90
29687;DHT22;16599;47.078;15.536;2023-03-04T08:55:40;5.30;99.90
29687;DHT22;16599;47.078;15.536;2023-03-04T08:58:07;5.70;99.90
29687;DHT22;16599;47.078;15.536;2023-03-04T09:00:35;5.70;99.90
29687;DHT22;16599;47.078;15.536;2023-03-04T09:03:02;5.80;99.90
29687;DHT22;16599;47.078;15.536;2023-03-04T09:05:30;5.90;99.20
29687;DHT22;16599;47.078;15.536;2023-03-04T09:07:57;5.80;98.90
29687;DHT22;16599;47.078;15.536;2023-03-04T09:10:24;6.20;98.60
29687;DHT22;16599;47.078;15.536;2023-03-04T09:12:50;6.10;98.20
29687;DHT22;16599;47.078;15.536;2023-03-04T09:15:17;6.00;98.00
29687;DHT22;16599;47.078;15.536;2023-03-04T09:17:44;6.10;98.30
29687;DHT22;16599;47.078;15.536;2023-03-04T09:20:11;6.40;98.20
29687;DHT22;16599;47.078;15.536;2023-03-04T09:22:39;6.40;97.90
29687;DHT22;16599;47.078;15.536;2023-03-04T09:25:06;6.80;97.80
29687;DHT22;16599;47.078;15.536;2023-03-04T09:27:38;6.70;96.20
29687;DHT22;16599;47.078;15.536;2023-03-04T09:30:04;6.70;95.30
29687;DHT22;16599;47.078;15.536;2023-03-04T09:32:31;6.70;96.00
29687;DHT22;16599;47.078;15.536;2023-03-04T09:34:58;6.80;95.30
29687;DHT22;16599;47.078;15.536;2023-03-04T09:37:25;7.00;96.10
29687;DHT22;16599;47.078;15.536;2023-03-04T09:39:51;7.20;95.50
29687;DHT22;16599;47.078;15.536;2023-03-04T09:42:23;7.20;93.60
29687;DHT22;16599;47.078;15.536;2023-03-04T09:44:50;7.40;93.90
29687;DHT22;16599;47.078;15.536;2023-03-04T09:47:17;7.30;93.00
29687;DHT22;16599;47.078;15.536;2023-03-04T09:49:48;7.30;92.90
29687;DHT22;16599;47.078;15.536;2023-03-04T09:58:04;7.90;92.50
29687;DHT22;16599;47.078;15.536;2023-03-04T10:05:53;8.20;92.40
29687;DHT22;16599;47.078;15.536;2023-03-04T10:11:27;8.00;91.30
29687;DHT22;16599;47.078;15.536;2023-03-04T10:16:23;8.20;91.50
29687;DHT22;16599;47.078;15.536;2023-03-04T10:18:53;8.60;91.30
29687;DHT22;16599;47.078;15.536;2023-03-04T10:23:48;8.80;89.40
29687;DHT22;16599;47.078;15.536;2023-03-04T10:26:15;8.90;90.40
29687;DHT22;16599;47.078;15.536;2023-03-04T10:28:42;9.20;88.70
29687;DHT22;16599;47.078;15.536;2023-03-04T10:31:18;9.40;89.40
29687;DHT22;16599;47.078;15.536;2023-03-04T10:33:46;9.20;88.10
29687;DHT22;16599;47.078;15.536;2023-03-04T10:38:48;9.90;89.20
29687;DHT22;16599;47.078;15.536;2023-03-04T10:41:20;9.70;86.70
29687;DHT22;16599;47.078;15.536;2023-03-04T10:44:04;9.60;85.70
29687;DHT22;16599;47.078;15.536;2023-03-04T10:46:38;9.50;85.80
29687;DHT22;16599;47.078;15.536;2023-03-04T10:49:05;9.90;87.60
29687;DHT22;16599;47.078;15.536;2023-03-04T10:51:37;10.10;84.70
29687;DHT22;16599;47.078;15.536;2023-03-04T10:54:07;9.90;83.90
29687;DHT22;16599;47.078;15.536;2023-03-04T10:56:39;9.80;82.90
29687;DHT22;16599;47.078;15.536;2023-03-04T11:01:53;10.10;81.60
29687;DHT22;16599;47.078;15.536;2023-03-04T11:04:23;10.10;82.60
29687;DHT22;16599;47.078;15.536;2023-03-04T11:06:51;10.20;79.90
29687;DHT22;16599;47.078;15.536;2023-03-04T11:09:22;10.50;82.70
29687;DHT22;16599;47.078;15.536;2023-03-04T11:11:49;10.70;80.10
29687;DHT22;16599;47.078;15.536;2023-03-04T11:14:36;10.90;79.10
29687;DHT22;16599;47.078;15.536;2023-03-04T11:17:18;11.00;78.20
29687;DHT22;16599;47.078;15.536;2023-03-04T11:19:47;11.20;77.00
29687;DHT22;16599;47.078;15.536;2023-03-04T11:22:14;11.30;74.80
29687;DHT22;16599;47.078;15.536;2023-03-04T11:24:42;11.30;72.60
29687;DHT22;16599;47.078;15.536;2023-03-04T11:27:17;10.70;72.80
29687;DHT22;16599;47.078;15.536;2023-03-04T11:32:42;11.50;73.30
29687;DHT22;16599;47.078;15.536;2023-03-04T11:35:32;11.60;72.30
29687;DHT22;16599;47.078;15.536;2023-03-04T11:40:38;11.70;70.10
29687;DHT22;16599;47.078;15.536;2023-03-04T11:43:09;11.70;72.80
29687;DHT22;16599;47.078;15.536;2023-03-04T11:45:58;11.60;71.70
29687;DHT22;16599;47.078;15.536;2023-03-04T11:48:32;12.10;71.00
29687;DHT22;16599;47.078;15.536;2023-03-04T11:58:44;11.50;71.90
29687;DHT22;16599;47.078;15.536;2023-03-04T12:03:59;12.10;67.70
29687;DHT22;16599;47.078;15.536;2023-03-04T12:09:00;12.30;68.60
29687;DHT22;16599;47.078;15.536;2023-03-04T12:21:22;12.00;68.40
29687;DHT22;16599;47.078;15.536;2023-03-04T12:31:41;12.70;65.90
29687;DHT22;16599;47.078;15.536;2023-03-04T12:34:18;12.40;64.70
29687;DHT22;16599;47.078;15.536;2023-03-04T12:39:39;12.90;66.90
29687;DHT22;16599;47.078;15.536;2023-03-04T12:47:33;13.60;62.50
29687;DHT22;16599;47.078;15.536;2023-03-04T12:55:36;13.40;60.50
29687;DHT22;16599;47.078;15.536;2023-03-04T12:58:03;13.30;64.00
29687;DHT22;16599;47.078;15.536;2023-03-04T13:00:39;13.40;60.40
29687;DHT22;16599;47.078;15.536;2023-03-04T13:08:25;12.70;62.50
29687;DHT22;16599;47.078;15.536;2023-03-04T13:11:02;12.60;65.50
29687;DHT22;16599;47.078;15.536;2023-03-04T13:18:37;13.80;59.80
29687;DHT22;16599;47.078;15.536;2023-03-04T13:23:31;13.30;61.30
29687;DHT22;16599;47.078;15.536;2023-03-04T13:28:29;13.70;59.60
29687;DHT22;16599;47.078;15.536;2023-03-04T13:43:45;13.90;56.50
29687;DHT22;16599;47.078;15.536;2023-03-04T13:58:51;14.10;60.70
29687;DHT22;16599;47.078;15.536;2023-03-04T14:01:21;14.30;58.00
29687;DHT22;16599;47.078;15.536;2023-03-04T14:03:48;14.40;58.10
29687;DHT22;16599;47.078;15.536;2023-03-04T14:06:17;14.20;57.80
29687;DHT22;16599;47.078;15.536;2023-03-04T14:08:45;14.40;58.50
29687;DHT22;16599;47.078;15.536;2023-03-04T14:11:13;13.60;59.00
29687;DHT22;16599;47.078;15.536;2023-03-04T14:13:40;13.40;59.60
29687;DHT22;16599;47.078;15.536;2023-03-04T14:16:07;13.60;60.50
29687;DHT22;16599;47.078;15.536;2023-03-04T14:18:34;13.90;59.40
29687;DHT22;16599;47.078;15.536;2023-03-04T14:21:02;14.00;59.60
29687;DHT22;16599;47.078;15.536;2023-03-04T14:23:32;14.30;58.30
29687;DHT22;16599;47.078;15.536;2023-03-04T14:26:08;14.00;58.00
29687;DHT22;16599;47.078;15.536;2023-03-04T14:28:43;14.20;58.50
29687;DHT22;16599;47.078;15.536;2023-03-04T14:31:13;14.20;59.50
29687;DHT22;16599;47.078;15.536;2023-03-04T14:33:42;14.20;59.30
29687;DHT22;16599;47.078;15.536;2023-03-04T14:36:13;14.00;59.90
29687;DHT22;16599;47.078;15.536;2023-03-04T14:38:41;13.90;61.20
29687;DHT22;16599;47.078;15.536;2023-03-04T14:41:20;13.80;60.40
29687;DHT22;16599;47.078;15.536;2023-03-04T14:46:16;13.40;62.60
29687;DHT22;16599;47.078;15.536;2023-03-04T14:48:46;13.10;61.90
29687;DHT22;16599;47.078;15.536;2023-03-04T14:54:00;13.20;62.30
29687;DHT22;16599;47.078;15.536;2023-03-04T14:56:27;13.00;62.50
29687;DHT22;16599;47.078;15.536;2023-03-04T14:58:55;12.80;63.80
29687;DHT22;16599;47.078;15.536;2023-03-04T15:01:41;13.00;63.70
29687;DHT22;16599;47.078;15.536;2023-03-04T15:04:10;13.00;62.90
29687;DHT22;16599;47.078;15.536;2023-03-04T15:06:38;12.70;61.90
29687;DHT22;16599;47.078;15.536;2023-03-04T15:09:22;12.60;63.10
29687;DHT22;16599;47.078;15.536;2023-03-04T15:11:50;12.50;63.50
29687;DHT22;16599;47.078;15.536;2023-03-04T15:17:03;12.40;64.40
29687;DHT22;16599;47.078;15.536;2023-03-04T15:19:29;12.20;65.10
29687;DHT22;16599;47.078;15.536;2023-03-04T15:22:03;12.30;66.20
29687;DHT22;16599;47.078;15.536;2023-03-04T15:24:30;12.20;65.70
29687;DHT22;16599;47.078;15.536;2023-03-04T15:26:57;12.20;65.90
29687;DHT22;16599;47.078;15.536;2023-03-04T15:29:24;12.00;65.90
29687;DHT22;16599;47.078;15.536;2023-03-04T15:34:30;11.70;66.00
29687;DHT22;16599;47.078;15.536;2023-03-04T15:36:57;11.60;65.90
29687;DHT22;16599;47.078;15.536;2023-03-04T15:39:44;11.70;65.90
29687;DHT22;16599;47.078;15.536;2023-03-04T15:42:11;11.70;67.80
29687;DHT22;16599;47.078;15.536;2023-03-04T15:44:38;11.90;65.90
29687;DHT22;16599;47.078;15.536;2023-03-04T15:47:05;11.90;66.30
29687;DHT22;16599;47.078;15.536;2023-03-04T15:49:34;11.80;66.10
29687;DHT22;16599;47.078;15.536;2023-03-04T15:52:03;11.60;67.20
29687;DHT22;16599;47.078;15.536;2023-03-04T15:54:30;11.20;69.20
29687;DHT22;16599;47.078;15.536;2023-03-04T15:56:57;11.20;71.00
29687;DHT22;16599;47.078;15.536;2023-03-04T15:59:25;11.00;71.70
29687;DHT22;16599;47.078;15.536;2023-03-04T16:01:52;10.90;71.50
29687;DHT22;16599;47.078;15.536;2023-03-04T16:04:19;10.70;73.70
29687;DHT22;16599;47.078;15.536;2023-03-04T16:06:49;10.40;75.30
29687;DHT22;16599;47.078;15.536;2023-03-04T16:09:16;9.50;79.90
29687;DHT22;16599;47.078;15.536;2023-03-04T16:11:45;8.90;83.40
29687;DHT22;16599;47.078;15.536;2023-03-04T16:14:13;9.00;83.10
29687;DHT22;16599;47.078;15.536;2023-03-04T16:16:40;8.90;82.50
29687;DHT22;16599;47.078;15.536;2023-03-04T16:19:08;8.90;82.00
29687;DHT22;16599;47.078;15.536;2023-03-04T16:21:35;9.20;80.60
29687;DHT22;16599;47.078;15.536;2023-03-04T16:24:02;9.00;80.80
29687;DHT22;16599;47.078;15.536;2023-03-04T16:26:29;8.90;80.70
29687;DHT22;16599;47.078;15.536;2023-03-04T16:28:56;9.40;77.20
29687;DHT22;16599;47.078;15.536;2023-03-04T16:31:23;8.70;78.40
29687;DHT22;16599;47.078;15.536;2023-03-04T16:33:49;8.50;78.30
29687;DHT22;16599;47.078;15.536;2023-03-04T16:36:21;8.20;79.00
29687;DHT22;16599;47.078;15.536;2023-03-04T16:38:48;7.90;77.40
29687;DHT22;16599;47.078;15.536;2023-03-04T16:41:16;7.90;76.30
29687;DHT22;16599;47.078;15.536;2023-03-04T16:43:42;7.70;76.00
29687;DHT22;16599;47.078;15.536;2023-03-04T16:46:11;7.60;74.70
29687;DHT22;16599;47.078;15.536;2023-03-04T16:48:38;7.50;74.80
29687;DHT22;16599;47.078;15.536;2023-03-04T16:51:12;7.30;76.10
29687;DHT22;16599;47.078;15.536;2023-03-04T16:53:39;7.40;75.20
29687;DHT22;16599;47.078;15.536;2023-03-04T16:56:11;7.50;80.20
29687;DHT22;16599;47.078;15.536;2023-03-04T16:58:39;7.00;77.30
29687;DHT22;16599;47.078;15.536;2023-03-04T17:01:06;7.20;81.90
29687;DHT22;16599;47.078;15.536;2023-03-04T17:03:36;6.90;81.70
29687;DHT22;16599;47.078;15.536;2023-03-04T17:06:03;6.80;79.70
29687;DHT22;16599;47.078;15.536;2023-03-04T17:08:29;6.90;81.70
29687;DHT22;16599;47.078;15.536;2023-03-04T17:10:56;6.90;81.30
29687;DHT22;16599;47.078;15.536;2023-03-04T17:13:23;6.80;84.30
29687;DHT22;16599;47.078;15.536;2023-03-04T17:15:49;6.70;85.00
29687;DHT22;16599;47.078;15.536;2023-03-04T17:18:16;6.70;83.80
29687;DHT22;16599;47.078;15.536;2023-03-04T17:20:43;6.70;84.00
29687;DHT22;16599;47.078;15.536;2023-03-04T17:23:09;6.20;84.40
29687;DHT22;16599;47.078;15.536;2023-03-04T17:25:36;6.00;84.80
29687;DHT22;16599;47.078;15.536;2023-03-04T17:28:03;5.30;84.10
29687;DHT22;16599;47.078;15.536;2023-03-04T17:30:30;5.20;83.30
29687;DHT22;16599;47.078;15.536;2023-03-04T17:32:57;5.20;82.40
29687;DHT22;16599;47.078;15.536;2023-03-04T17:35:23;5.20;83.20